sensor_id;sensor_type;location;lat;lon;timestamp;P1;durP1;ratioP1;P2;durP2;ratioP2
33104;SDS011;19476;51.448;6.674;2023-08-06T00:05:17;2.03;;;1.35;;
33104;SDS011;19476;51.448;6.674;2023-08-06T00:08:01;2.47;;;1.23;;
33104;SDS011;19476;51.448;6.674;2023-08-06T00:13:49;2.17;;;1.30;;
33104;SDS011;19476;51.448;6.674;2023-08-06T00:16:15;2.67;;;1.40;;
33104;SDS011;19476;51.448;6.674;2023-08-06T00:18:40;2.28;;;1.52;;
33104;SDS011;19476;51.448;6.674;2023-08-06T00:21:06;2.35;;;1.50;;
33104;SDS011;19476;51.448;6.674;2023-08-06T00:23:32;3.55;;;1.50;;
33104;SDS011;19476;51.448;6.674;2023-08-06T00:25:58;4.53;;;1.45;;
33104;SDS011;19476;51.448;6.674;2023-08-06T00:28:24;2.30;;;1.50;;
33104;SDS011;19476;51.448;6.674;2023-08-06T00:30:53;2.58;;;1.20;;
33104;SDS011;19476;51.448;6.674;2023-08-06T00:33:24;3.38;;;1.60;;
33104;SDS011;19476;51.448;6.674;2023-08-06T00:35:50;3.00;;;1.50;;
33104;SDS011;19476;51.448;6.674;2023-08-06T00:38:16;1.88;;;1.30;;
33104;SDS011;19476;51.448;6.674;2023-08-06T00:40:42;3.17;;;1.48;;
33104;SDS011;19476;51.448;6.674;2023-08-06T00:43:08;2.67;;;1.30;;
33104;SDS011;19476;51.448;6.674;2023-08-06T00:45:35;2.85;;;1.25;;
33104;SDS011;19476;51.448;6.674;2023-08-06T00:48:02;2.67;;;1.42;;
33104;SDS011;19476;51.448;6.674;2023-08-06T00:50:30;2.90;;;1.45;;
33104;SDS011;19476;51.448;6.674;2023-08-06T00:52:56;2.35;;;1.25;;
33104;SDS011;19476;51.448;6.674;2023-08-06T00:55:22;2.45;;;1.33;;
33104;SDS011;19476;51.448;6.674;2023-08-06T00:57:48;3.13;;;1.30;;
33104;SDS011;19476;51.448;6.674;2023-08-06T01:00:16;4.07;;;1.70;;
33104;SDS011;19476;51.448;6.674;2023-08-06T01:02:42;3.28;;;1.75;;
33104;SDS011;19476;51.448;6.674;2023-08-06T01:05:07;2.58;;;1.38;;
33104;SDS011;19476;51.448;6.674;2023-08-06T01:12:50;3.88;;;1.48;;
33104;SDS011;19476;51.448;6.674;2023-08-06T01:15:35;2.92;;;1.52;;
33104;SDS011;19476;51.448;6.674;2023-08-06T01:18:09;2.92;;;1.42;;
33104;SDS011;19476;51.448;6.674;2023-08-06T01:20:35;3.45;;;1.33;;
33104;SDS011;19476;51.448;6.674;2023-08-06T01:23:01;1.92;;;1.30;;
33104;SDS011;19476;51.448;6.674;2023-08-06T01:25:33;5.10;;;1.30;;
33104;SDS011;19476;51.448;6.674;2023-08-06T01:28:09;3.15;;;1.45;;
33104;SDS011;19476;51.448;6.674;2023-08-06T01:30:41;2.20;;;1.35;;
33104;SDS011;19476;51.448;6.674;2023-08-06T01:33:08;2.53;;;1.30;;
33104;SDS011;19476;51.448;6.674;2023-08-06T01:35:39;2.45;;;1.40;;
33104;SDS011;19476;51.448;6.674;2023-08-06T01:38:05;1.77;;;1.00;;
33104;SDS011;19476;51.448;6.674;2023-08-06T01:40:31;2.40;;;1.27;;
33104;SDS011;19476;51.448;6.674;2023-08-06T01:42:58;2.55;;;1.40;;
33104;SDS011;19476;51.448;6.674;2023-08-06T01:45:24;2.17;;;1.42;;
33104;SDS011;19476;51.448;6.674;2023-08-06T01:47:49;2.10;;;1.10;;
33104;SDS011;19476;51.448;6.674;2023-08-06T01:50:15;1.75;;;1.10;;
33104;SDS011;19476;51.448;6.674;2023-08-06T01:52:41;2.55;;;1.30;;
33104;SDS011;19476;51.448;6.674;2023-08-06T01:55:07;2.03;;;1.30;;
33104;SDS011;19476;51.448;6.674;2023-08-06T01:57:32;2.80;;;1.40;;
33104;SDS011;19476;51.448;6.674;2023-08-06T01:59:58;2.90;;;1.30;;
33104;SDS011;19476;51.448;6.674;2023-08-06T02:02:24;1.83;;;1.20;;
33104;SDS011;19476;51.448;6.674;2023-08-06T02:04:50;1.88;;;1.10;;
33104;SDS011;19476;51.448;6.674;2023-08-06T02:07:15;2.60;;;1.25;;
33104;SDS011;19476;51.448;6.674;2023-08-06T02:09:41;2.97;;;1.27;;
33104;SDS011;19476;51.448;6.674;2023-08-06T02:12:07;1.60;;;1.00;;
33104;SDS011;19476;51.448;6.674;2023-08-06T02:14:33;2.17;;;1.10;;
33104;SDS011;19476;51.448;6.674;2023-08-06T02:17:00;2.67;;;1.40;;
33104;SDS011;19476;51.448;6.674;2023-08-06T02:19:26;2.55;;;1.10;;
33104;SDS011;19476;51.448;6.674;2023-08-06T02:21:51;1.45;;;1.05;;
33104;SDS011;19476;51.448;6.674;2023-08-06T02:24:17;2.72;;;1.40;;
33104;SDS011;19476;51.448;6.674;2023-08-06T02:26:43;3.13;;;1.42;;
33104;SDS011;19476;51.448;6.674;2023-08-06T02:29:09;1.98;;;1.13;;
33104;SDS011;19476;51.448;6.674;2023-08-06T02:31:34;2.00;;;1.38;;
33104;SDS011;19476;51.448;6.674;2023-08-06T02:34:00;2.60;;;1.25;;
33104;SDS011;19476;51.448;6.674;2023-08-06T02:36:26;3.03;;;1.40;;
33104;SDS011;19476;51.448;6.674;2023-08-06T02:38:54;2.63;;;1.20;;
33104;SDS011;19476;51.448;6.674;2023-08-06T02:41:20;2.28;;;1.13;;
33104;SDS011;19476;51.448;6.674;2023-08-06T02:43:46;1.48;;;0.90;;
33104;SDS011;19476;51.448;6.674;2023-08-06T02:46:12;2.30;;;1.10;;
33104;SDS011;19476;51.448;6.674;2023-08-06T02:48:37;1.90;;;1.20;;
33104;SDS011;19476;51.448;6.674;2023-08-06T02:51:03;2.97;;;1.40;;
33104;SDS011;19476;51.448;6.674;2023-08-06T02:53:29;3.40;;;1.50;;
33104;SDS011;19476;51.448;6.674;2023-08-06T02:55:55;2.35;;;1.58;;
33104;SDS011;19476;51.448;6.674;2023-08-06T02:58:21;2.25;;;1.20;;
33104;SDS011;19476;51.448;6.674;2023-08-06T03:00:58;2.28;;;1.17;;
33104;SDS011;19476;51.448;6.674;2023-08-06T03:03:32;2.90;;;1.20;;
33104;SDS011;19476;51.448;6.674;2023-08-06T03:05:58;3.22;;;1.42;;
33104;SDS011;19476;51.448;6.674;2023-08-06T03:08:25;2.08;;;1.10;;
33104;SDS011;19476;51.448;6.674;2023-08-06T03:10:51;2.55;;;1.33;;
33104;SDS011;19476;51.448;6.674;2023-08-06T03:13:17;2.20;;;1.33;;
33104;SDS011;19476;51.448;6.674;2023-08-06T03:15:51;3.17;;;1.40;;
33104;SDS011;19476;51.448;6.674;2023-08-06T03:18:20;2.63;;;1.20;;
33104;SDS011;19476;51.448;6.674;2023-08-06T03:20:46;1.40;;;1.00;;
33104;SDS011;19476;51.448;6.674;2023-08-06T03:23:12;1.90;;;1.20;;
33104;SDS011;19476;51.448;6.674;2023-08-06T03:25:38;2.15;;;1.10;;
33104;SDS011;19476;51.448;6.674;2023-08-06T03:28:04;2.40;;;1.10;;
33104;SDS011;19476;51.448;6.674;2023-08-06T03:30:30;2.08;;;1.25;;
33104;SDS011;19476;51.448;6.674;2023-08-06T03:32:55;3.00;;;1.60;;
33104;SDS011;19476;51.448;6.674;2023-08-06T03:35:21;1.73;;;1.02;;
33104;SDS011;19476;51.448;6.674;2023-08-06T03:37:47;1.58;;;1.05;;
33104;SDS011;19476;51.448;6.674;2023-08-06T03:40:14;3.28;;;1.17;;
33104;SDS011;19476;51.448;6.674;2023-08-06T03:42:40;2.78;;;1.30;;
33104;SDS011;19476;51.448;6.674;2023-08-06T03:45:06;1.95;;;1.20;;
33104;SDS011;19476;51.448;6.674;2023-08-06T03:47:32;2.85;;;1.40;;
33104;SDS011;19476;51.448;6.674;2023-08-06T03:49:58;3.00;;;1.00;;
33104;SDS011;19476;51.448;6.674;2023-08-06T03:52:24;3.10;;;1.20;;
33104;SDS011;19476;51.448;6.674;2023-08-06T03:54:50;3.10;;;1.00;;
33104;SDS011;19476;51.448;6.674;2023-08-06T03:57:15;1.77;;;1.20;;
33104;SDS011;19476;51.448;6.674;2023-08-06T03:59:41;2.60;;;1.27;;
33104;SDS011;19476;51.448;6.674;2023-08-06T04:02:07;3.15;;;1.13;;
33104;SDS011;19476;51.448;6.674;2023-08-06T04:04:33;2.85;;;1.38;;
33104;SDS011;19476;51.448;6.674;2023-08-06T04:06:58;2.03;;;1.10;;
33104;SDS011;19476;51.448;6.674;2023-08-06T04:09:24;1.90;;;1.20;;
33104;SDS011;19476;51.448;6.674;2023-08-06T04:11:53;1.85;;;1.15;;
33104;SDS011;19476;51.448;6.674;2023-08-06T04:14:19;2.47;;;1.10;;
33104;SDS011;19476;51.448;6.674;2023-08-06T04:16:44;2.15;;;1.40;;
33104;SDS011;19476;51.448;6.674;2023-08-06T04:19:10;2.03;;;1.17;;
33104;SDS011;19476;51.448;6.674;2023-08-06T04:21:36;1.90;;;1.20;;
33104;SDS011;19476;51.448;6.674;2023-08-06T04:24:02;3.30;;;1.40;;
33104;SDS011;19476;51.448;6.674;2023-08-06T04:26:28;1.75;;;1.00;;
33104;SDS011;19476;51.448;6.674;2023-08-06T04:28:54;2.10;;;1.10;;
33104;SDS011;19476;51.448;6.674;2023-08-06T04:31:21;2.58;;;1.27;;
33104;SDS011;19476;51.448;6.674;2023-08-06T04:33:47;2.90;;;1.17;;
33104;SDS011;19476;51.448;6.674;2023-08-06T04:36:12;1.90;;;1.17;;
33104;SDS011;19476;51.448;6.674;2023-08-06T04:38:38;2.17;;;1.15;;
33104;SDS011;19476;51.448;6.674;2023-08-06T04:41:06;2.50;;;1.20;;
33104;SDS011;19476;51.448;6.674;2023-08-06T04:43:32;2.38;;;1.00;;
33104;SDS011;19476;51.448;6.674;2023-08-06T04:45:58;1.77;;;1.10;;
33104;SDS011;19476;51.448;6.674;2023-08-06T04:48:23;1.42;;;1.00;;
33104;SDS011;19476;51.448;6.674;2023-08-06T04:50:49;2.67;;;1.20;;
33104;SDS011;19476;51.448;6.674;2023-08-06T04:53:16;2.70;;;1.15;;
33104;SDS011;19476;51.448;6.674;2023-08-06T04:55:42;3.58;;;0.90;;
33104;SDS011;19476;51.448;6.674;2023-08-06T04:58:12;1.70;;;0.90;;
33104;SDS011;19476;51.448;6.674;2023-08-06T05:00:38;3.53;;;1.52;;
33104;SDS011;19476;51.448;6.674;2023-08-06T05:03:04;2.10;;;1.02;;
33104;SDS011;19476;51.448;6.674;2023-08-06T05:05:30;1.85;;;0.93;;
33104;SDS011;19476;51.448;6.674;2023-08-06T05:07:56;3.00;;;0.95;;
33104;SDS011;19476;51.448;6.674;2023-08-06T05:10:25;2.55;;;1.10;;
33104;SDS011;19476;51.448;6.674;2023-08-06T05:12:52;2.28;;;1.02;;
33104;SDS011;19476;51.448;6.674;2023-08-06T05:15:18;2.55;;;1.00;;
33104;SDS011;19476;51.448;6.674;2023-08-06T05:17:44;2.88;;;1.17;;
33104;SDS011;19476;51.448;6.674;2023-08-06T05:20:10;1.80;;;1.10;;
33104;SDS011;19476;51.448;6.674;2023-08-06T05:22:36;1.98;;;1.17;;
33104;SDS011;19476;51.448;6.674;2023-08-06T05:25:02;1.70;;;1.10;;
33104;SDS011;19476;51.448;6.674;2023-08-06T05:27:28;2.38;;;1.25;;
33104;SDS011;19476;51.448;6.674;2023-08-06T05:29:56;1.80;;;1.13;;
33104;SDS011;19476;51.448;6.674;2023-08-06T05:32:22;3.55;;;1.00;;
33104;SDS011;19476;51.448;6.674;2023-08-06T05:34:48;1.85;;;1.00;;
33104;SDS011;19476;51.448;6.674;2023-08-06T05:37:14;2.67;;;1.02;;
33104;SDS011;19476;51.448;6.674;2023-08-06T05:39:39;1.55;;;1.05;;
33104;SDS011;19476;51.448;6.674;2023-08-06T05:42:05;1.92;;;1.20;;
33104;SDS011;19476;51.448;6.674;2023-08-06T05:44:31;2.58;;;1.25;;
33104;SDS011;19476;51.448;6.674;2023-08-06T05:46:57;2.20;;;1.13;;
33104;SDS011;19476;51.448;6.674;2023-08-06T05:49:23;2.17;;;1.17;;
33104;SDS011;19476;51.448;6.674;2023-08-06T05:51:49;2.47;;;1.00;;
33104;SDS011;19476;51.448;6.674;2023-08-06T05:54:14;2.90;;;1.10;;
33104;SDS011;19476;51.448;6.674;2023-08-06T05:56:40;1.73;;;1.13;;
33104;SDS011;19476;51.448;6.674;2023-08-06T05:59:06;3.20;;;1.20;;
33104;SDS011;19476;51.448;6.674;2023-08-06T06:01:32;2.53;;;1.30;;
33104;SDS011;19476;51.448;6.674;2023-08-06T06:03:58;2.10;;;1.00;;
33104;SDS011;19476;51.448;6.674;2023-08-06T06:06:23;1.80;;;1.20;;
33104;SDS011;19476;51.448;6.674;2023-08-06T06:08:49;2.40;;;1.33;;
33104;SDS011;19476;51.448;6.674;2023-08-06T06:11:15;2.13;;;1.30;;
33104;SDS011;19476;51.448;6.674;2023-08-06T06:13:40;1.10;;;0.73;;
33104;SDS011;19476;51.448;6.674;2023-08-06T06:16:06;3.33;;;1.25;;
33104;SDS011;19476;51.448;6.674;2023-08-06T06:18:32;2.92;;;1.20;;
33104;SDS011;19476;51.448;6.674;2023-08-06T06:20:58;2.42;;;1.10;;
33104;SDS011;19476;51.448;6.674;2023-08-06T06:23:23;2.05;;;0.93;;
33104;SDS011;19476;51.448;6.674;2023-08-06T06:25:49;1.77;;;1.05;;
33104;SDS011;19476;51.448;6.674;2023-08-06T06:28:17;1.63;;;1.10;;
33104;SDS011;19476;51.448;6.674;2023-08-06T06:30:43;2.08;;;1.17;;
33104;SDS011;19476;51.448;6.674;2023-08-06T06:33:09;2.45;;;1.63;;
33104;SDS011;19476;51.448;6.674;2023-08-06T06:35:34;2.28;;;1.55;;
33104;SDS011;19476;51.448;6.674;2023-08-06T06:38:00;3.08;;;1.95;;
33104;SDS011;19476;51.448;6.674;2023-08-06T06:40:27;3.60;;;2.00;;
33104;SDS011;19476;51.448;6.674;2023-08-06T06:42:53;3.05;;;1.65;;
33104;SDS011;19476;51.448;6.674;2023-08-06T06:45:19;3.35;;;1.60;;
33104;SDS011;19476;51.448;6.674;2023-08-06T06:47:45;4.20;;;1.95;;
33104;SDS011;19476;51.448;6.674;2023-08-06T06:50:10;3.13;;;1.63;;
33104;SDS011;19476;51.448;6.674;2023-08-06T06:52:36;2.65;;;1.83;;
33104;SDS011;19476;51.448;6.674;2023-08-06T06:55:02;3.65;;;1.70;;
33104;SDS011;19476;51.448;6.674;2023-08-06T06:57:29;2.95;;;1.77;;
33104;SDS011;19476;51.448;6.674;2023-08-06T06:59:54;2.65;;;1.70;;
33104;SDS011;19476;51.448;6.674;2023-08-06T07:02:20;3.53;;;1.60;;
33104;SDS011;19476;51.448;6.674;2023-08-06T07:04:46;3.55;;;2.22;;
33104;SDS011;19476;51.448;6.674;2023-08-06T07:07:12;4.20;;;2.95;;
33104;SDS011;19476;51.448;6.674;2023-08-06T07:09:38;5.35;;;3.50;;
33104;SDS011;19476;51.448;6.674;2023-08-06T07:12:05;5.63;;;3.38;;
33104;SDS011;19476;51.448;6.674;2023-08-06T07:14:31;4.80;;;2.90;;
33104;SDS011;19476;51.448;6.674;2023-08-06T07:16:57;4.00;;;2.95;;
33104;SDS011;19476;51.448;6.674;2023-08-06T07:19:23;3.35;;;2.10;;
33104;SDS011;19476;51.448;6.674;2023-08-06T07:21:48;4.18;;;2.20;;
33104;SDS011;19476;51.448;6.674;2023-08-06T07:24:14;3.60;;;2.17;;
33104;SDS011;19476;51.448;6.674;2023-08-06T07:26:40;2.95;;;1.90;;
33104;SDS011;19476;51.448;6.674;2023-08-06T07:29:06;6.20;;;2.20;;
33104;SDS011;19476;51.448;6.674;2023-08-06T07:31:31;2.88;;;1.80;;
33104;SDS011;19476;51.448;6.674;2023-08-06T07:33:57;2.45;;;1.50;;
33104;SDS011;19476;51.448;6.674;2023-08-06T07:36:23;2.72;;;1.65;;
33104;SDS011;19476;51.448;6.674;2023-08-06T07:38:49;3.55;;;1.58;;
33104;SDS011;19476;51.448;6.674;2023-08-06T07:41:20;1.80;;;1.40;;
33104;SDS011;19476;51.448;6.674;2023-08-06T07:43:47;3.08;;;1.70;;
33104;SDS011;19476;51.448;6.674;2023-08-06T07:46:13;3.50;;;1.73;;
33104;SDS011;19476;51.448;6.674;2023-08-06T07:48:38;2.20;;;1.38;;
33104;SDS011;19476;51.448;6.674;2023-08-06T07:51:04;2.95;;;1.60;;
33104;SDS011;19476;51.448;6.674;2023-08-06T07:53:30;2.03;;;1.50;;
33104;SDS011;19476;51.448;6.674;2023-08-06T07:55:56;2.05;;;1.27;;
33104;SDS011;19476;51.448;6.674;2023-08-06T07:58:23;2.10;;;1.30;;
33104;SDS011;19476;51.448;6.674;2023-08-06T08:00:49;2.55;;;1.35;;
33104;SDS011;19476;51.448;6.674;2023-08-06T08:03:15;2.38;;;1.40;;
33104;SDS011;19476;51.448;6.674;2023-08-06T08:05:42;2.58;;;1.38;;
33104;SDS011;19476;51.448;6.674;2023-08-06T08:08:09;2.38;;;1.05;;
33104;SDS011;19476;51.448;6.674;2023-08-06T08:10:35;2.35;;;1.40;;
33104;SDS011;19476;51.448;6.674;2023-08-06T08:13:04;2.22;;;1.38;;
33104;SDS011;19476;51.448;6.674;2023-08-06T08:15:31;1.80;;;1.10;;
33104;SDS011;19476;51.448;6.674;2023-08-06T08:17:57;3.92;;;1.35;;
33104;SDS011;19476;51.448;6.674;2023-08-06T08:20:23;2.85;;;1.25;;
33104;SDS011;19476;51.448;6.674;2023-08-06T08:22:49;1.52;;;1.15;;
33104;SDS011;19476;51.448;6.674;2023-08-06T08:25:15;3.05;;;1.50;;
33104;SDS011;19476;51.448;6.674;2023-08-06T08:27:42;2.53;;;1.35;;
33104;SDS011;19476;51.448;6.674;2023-08-06T08:30:07;2.40;;;1.23;;
33104;SDS011;19476;51.448;6.674;2023-08-06T08:32:34;1.92;;;1.27;;
33104;SDS011;19476;51.448;6.674;2023-08-06T08:34:59;1.48;;;1.00;;
33104;SDS011;19476;51.448;6.674;2023-08-06T08:37:25;2.20;;;1.17;;
33104;SDS011;19476;51.448;6.674;2023-08-06T08:39:51;1.38;;;1.10;;
33104;SDS011;19476;51.448;6.674;2023-08-06T08:42:17;1.15;;;0.85;;
33104;SDS011;19476;51.448;6.674;2023-08-06T08:44:43;2.38;;;0.88;;
33104;SDS011;19476;51.448;6.674;2023-08-06T08:47:10;2.00;;;1.08;;
33104;SDS011;19476;51.448;6.674;2023-08-06T08:49:37;3.63;;;1.15;;
33104;SDS011;19476;51.448;6.674;2023-08-06T08:52:05;2.60;;;0.90;;
33104;SDS011;19476;51.448;6.674;2023-08-06T08:54:31;1.50;;;0.85;;
33104;SDS011;19476;51.448;6.674;2023-08-06T08:56:58;2.55;;;0.95;;
33104;SDS011;19476;51.448;6.674;2023-08-06T08:59:25;1.58;;;0.77;;
33104;SDS011;19476;51.448;6.674;2023-08-06T09:01:51;2.38;;;1.13;;
33104;SDS011;19476;51.448;6.674;2023-08-06T09:04:19;1.77;;;0.95;;
33104;SDS011;19476;51.448;6.674;2023-08-06T09:06:47;1.70;;;0.82;;
33104;SDS011;19476;51.448;6.674;2023-08-06T09:09:17;2.60;;;1.02;;
33104;SDS011;19476;51.448;6.674;2023-08-06T09:11:55;2.33;;;0.80;;
33104;SDS011;19476;51.448;6.674;2023-08-06T09:14:26;1.80;;;0.90;;
33104;SDS011;19476;51.448;6.674;2023-08-06T09:16:53;3.20;;;1.08;;
33104;SDS011;19476;51.448;6.674;2023-08-06T09:19:19;4.32;;;1.23;;
33104;SDS011;19476;51.448;6.674;2023-08-06T09:21:46;2.67;;;1.33;;
33104;SDS011;19476;51.448;6.674;2023-08-06T09:24:14;2.10;;;0.93;;
33104;SDS011;19476;51.448;6.674;2023-08-06T09:26:41;1.98;;;0.90;;
33104;SDS011;19476;51.448;6.674;2023-08-06T09:29:09;1.73;;;0.80;;
33104;SDS011;19476;51.448;6.674;2023-08-06T09:31:49;2.40;;;1.30;;
33104;SDS011;19476;51.448;6.674;2023-08-06T09:34:22;2.92;;;1.45;;
33104;SDS011;19476;51.448;6.674;2023-08-06T09:36:49;3.85;;;1.42;;
33104;SDS011;19476;51.448;6.674;2023-08-06T09:39:16;2.97;;;1.40;;
33104;SDS011;19476;51.448;6.674;2023-08-06T09:41:43;1.98;;;1.40;;
33104;SDS011;19476;51.448;6.674;2023-08-06T09:44:15;3.17;;;1.80;;
33104;SDS011;19476;51.448;6.674;2023-08-06T09:46:42;3.03;;;1.70;;
33104;SDS011;19476;51.448;6.674;2023-08-06T09:49:07;3.55;;;2.20;;
33104;SDS011;19476;51.448;6.674;2023-08-06T09:51:34;2.85;;;2.10;;
33104;SDS011;19476;51.448;6.674;2023-08-06T09:56:30;3.35;;;2.22;;
33104;SDS011;19476;51.448;6.674;2023-08-06T09:59:02;4.28;;;2.45;;
33104;SDS011;19476;51.448;6.674;2023-08-06T10:01:35;3.67;;;2.42;;
33104;SDS011;19476;51.448;6.674;2023-08-06T10:04:03;5.07;;;2.75;;
33104;SDS011;19476;51.448;6.674;2023-08-06T10:06:31;4.32;;;2.83;;
33104;SDS011;19476;51.448;6.674;2023-08-06T10:08:59;3.97;;;2.57;;
33104;SDS011;19476;51.448;6.674;2023-08-06T10:11:25;3.65;;;2.13;;
33104;SDS011;19476;51.448;6.674;2023-08-06T10:13:53;4.20;;;2.63;;
33104;SDS011;19476;51.448;6.674;2023-08-06T10:16:25;3.70;;;2.65;;
33104;SDS011;19476;51.448;6.674;2023-08-06T10:18:52;5.18;;;2.60;;
33104;SDS011;19476;51.448;6.674;2023-08-06T10:21:20;4.20;;;2.67;;
33104;SDS011;19476;51.448;6.674;2023-08-06T10:23:53;4.07;;;2.50;;
33104;SDS011;19476;51.448;6.674;2023-08-06T10:26:20;4.18;;;2.78;;
33104;SDS011;19476;51.448;6.674;2023-08-06T10:28:46;2.88;;;2.40;;
33104;SDS011;19476;51.448;6.674;2023-08-06T10:31:11;3.78;;;2.65;;
33104;SDS011;19476;51.448;6.674;2023-08-06T10:33:44;3.42;;;2.00;;
33104;SDS011;19476;51.448;6.674;2023-08-06T10:36:12;3.10;;;1.58;;
33104;SDS011;19476;51.448;6.674;2023-08-06T10:38:47;3.10;;;1.38;;
33104;SDS011;19476;51.448;6.674;2023-08-06T10:41:15;1.98;;;1.08;;
33104;SDS011;19476;51.448;6.674;2023-08-06T10:43:47;2.00;;;0.80;;
33104;SDS011;19476;51.448;6.674;2023-08-06T10:46:25;1.00;;;0.60;;
33104;SDS011;19476;51.448;6.674;2023-08-06T10:48:52;2.20;;;0.90;;
33104;SDS011;19476;51.448;6.674;2023-08-06T10:51:18;1.50;;;0.68;;
33104;SDS011;19476;51.448;6.674;2023-08-06T10:53:44;0.98;;;0.40;;
33104;SDS011;19476;51.448;6.674;2023-08-06T10:56:12;0.55;;;0.40;;
33104;SDS011;19476;51.448;6.674;2023-08-06T10:58:45;0.68;;;0.40;;
33104;SDS011;19476;51.448;6.674;2023-08-06T11:01:11;0.83;;;0.40;;
33104;SDS011;19476;51.448;6.674;2023-08-06T11:03:37;0.57;;;0.40;;
33104;SDS011;19476;51.448;6.674;2023-08-06T11:06:04;1.83;;;0.57;;
33104;SDS011;19476;51.448;6.674;2023-08-06T11:08:36;1.15;;;0.50;;
33104;SDS011;19476;51.448;6.674;2023-08-06T11:11:15;0.70;;;0.50;;
33104;SDS011;19476;51.448;6.674;2023-08-06T11:13:43;0.57;;;0.30;;
33104;SDS011;19476;51.448;6.674;2023-08-06T11:16:12;0.70;;;0.50;;
33104;SDS011;19476;51.448;6.674;2023-08-06T11:18:42;1.50;;;0.50;;
33104;SDS011;19476;51.448;6.674;2023-08-06T11:21:08;0.63;;;0.30;;
33104;SDS011;19476;51.448;6.674;2023-08-06T11:23:35;0.68;;;0.60;;
33104;SDS011;19476;51.448;6.674;2023-08-06T11:26:01;1.23;;;0.50;;
33104;SDS011;19476;51.448;6.674;2023-08-06T11:28:27;0.50;;;0.43;;
33104;SDS011;19476;51.448;6.674;2023-08-06T11:30:53;0.60;;;0.43;;
33104;SDS011;19476;51.448;6.674;2023-08-06T11:33:20;0.45;;;0.32;;
33104;SDS011;19476;51.448;6.674;2023-08-06T11:35:47;0.68;;;0.30;;
33104;SDS011;19476;51.448;6.674;2023-08-06T11:38:13;0.55;;;0.30;;
33104;SDS011;19476;51.448;6.674;2023-08-06T11:40:40;0.77;;;0.43;;
33104;SDS011;19476;51.448;6.674;2023-08-06T11:43:06;0.50;;;0.38;;
33104;SDS011;19476;51.448;6.674;2023-08-06T11:45:34;0.30;;;0.30;;
33104;SDS011;19476;51.448;6.674;2023-08-06T11:48:00;0.38;;;0.30;;
33104;SDS011;19476;51.448;6.674;2023-08-06T11:50:27;0.90;;;0.55;;
33104;SDS011;19476;51.448;6.674;2023-08-06T11:52:56;0.30;;;0.30;;
33104;SDS011;19476;51.448;6.674;2023-08-06T11:55:24;0.47;;;0.30;;
33104;SDS011;19476;51.448;6.674;2023-08-06T11:57:50;0.40;;;0.30;;
33104;SDS011;19476;51.448;6.674;2023-08-06T12:00:17;0.57;;;0.40;;
33104;SDS011;19476;51.448;6.674;2023-08-06T12:02:45;0.43;;;0.30;;
33104;SDS011;19476;51.448;6.674;2023-08-06T12:05:12;0.73;;;0.40;;
33104;SDS011;19476;51.448;6.674;2023-08-06T12:07:42;0.50;;;0.35;;
33104;SDS011;19476;51.448;6.674;2023-08-06T12:10:18;0.65;;;0.45;;
33104;SDS011;19476;51.448;6.674;2023-08-06T12:12:45;1.75;;;0.63;;
33104;SDS011;19476;51.448;6.674;2023-08-06T12:15:11;0.90;;;0.60;;
33104;SDS011;19476;51.448;6.674;2023-08-06T12:17:40;0.85;;;0.50;;
33104;SDS011;19476;51.448;6.674;2023-08-06T12:20:06;0.93;;;0.50;;
33104;SDS011;19476;51.448;6.674;2023-08-06T12:22:33;0.47;;;0.40;;
33104;SDS011;19476;51.448;6.674;2023-08-06T12:25:00;1.60;;;0.80;;
33104;SDS011;19476;51.448;6.674;2023-08-06T12:27:28;1.35;;;0.70;;
33104;SDS011;19476;51.448;6.674;2023-08-06T12:29:54;0.82;;;0.70;;
33104;SDS011;19476;51.448;6.674;2023-08-06T12:32:20;1.10;;;0.63;;
33104;SDS011;19476;51.448;6.674;2023-08-06T12:34:47;1.73;;;0.70;;
33104;SDS011;19476;51.448;6.674;2023-08-06T12:37:13;1.58;;;0.77;;
33104;SDS011;19476;51.448;6.674;2023-08-06T12:39:38;1.27;;;0.75;;
33104;SDS011;19476;51.448;6.674;2023-08-06T12:42:05;1.75;;;0.90;;
33104;SDS011;19476;51.448;6.674;2023-08-06T12:44:31;1.27;;;0.80;;
33104;SDS011;19476;51.448;6.674;2023-08-06T12:46:58;2.25;;;0.70;;
33104;SDS011;19476;51.448;6.674;2023-08-06T12:49:24;1.92;;;0.80;;
33104;SDS011;19476;51.448;6.674;2023-08-06T12:51:51;1.60;;;0.80;;
33104;SDS011;19476;51.448;6.674;2023-08-06T12:54:18;1.73;;;0.70;;
33104;SDS011;19476;51.448;6.674;2023-08-06T12:56:44;1.70;;;0.90;;
33104;SDS011;19476;51.448;6.674;2023-08-06T12:59:11;1.80;;;1.05;;
33104;SDS011;19476;51.448;6.674;2023-08-06T13:01:37;2.83;;;1.05;;
33104;SDS011;19476;51.448;6.674;2023-08-06T13:04:03;2.75;;;1.30;;
33104;SDS011;19476;51.448;6.674;2023-08-06T13:06:29;2.08;;;1.08;;
33104;SDS011;19476;51.448;6.674;2023-08-06T13:08:58;2.38;;;1.00;;
33104;SDS011;19476;51.448;6.674;2023-08-06T13:11:24;3.17;;;1.42;;
33104;SDS011;19476;51.448;6.674;2023-08-06T13:13:49;3.35;;;1.45;;
33104;SDS011;19476;51.448;6.674;2023-08-06T13:16:15;2.50;;;1.13;;
33104;SDS011;19476;51.448;6.674;2023-08-06T13:18:41;2.55;;;1.40;;
33104;SDS011;19476;51.448;6.674;2023-08-06T13:21:07;1.80;;;0.90;;
33104;SDS011;19476;51.448;6.674;2023-08-06T13:23:33;4.00;;;1.25;;
33104;SDS011;19476;51.448;6.674;2023-08-06T13:25:58;2.22;;;1.13;;
33104;SDS011;19476;51.448;6.674;2023-08-06T13:28:24;2.00;;;1.15;;
33104;SDS011;19476;51.448;6.674;2023-08-06T13:30:50;2.22;;;1.20;;
33104;SDS011;19476;51.448;6.674;2023-08-06T13:33:16;2.05;;;1.15;;
33104;SDS011;19476;51.448;6.674;2023-08-06T13:35:42;4.13;;;1.40;;
33104;SDS011;19476;51.448;6.674;2023-08-06T13:38:08;3.53;;;1.23;;
33104;SDS011;19476;51.448;6.674;2023-08-06T13:40:35;3.28;;;1.20;;
33104;SDS011;19476;51.448;6.674;2023-08-06T13:43:01;1.73;;;1.05;;
33104;SDS011;19476;51.448;6.674;2023-08-06T13:45:26;2.13;;;1.08;;
33104;SDS011;19476;51.448;6.674;2023-08-06T13:47:53;2.15;;;1.02;;
33104;SDS011;19476;51.448;6.674;2023-08-06T13:50:20;3.03;;;1.25;;
33104;SDS011;19476;51.448;6.674;2023-08-06T13:52:47;1.25;;;0.90;;
33104;SDS011;19476;51.448;6.674;2023-08-06T13:55:12;1.42;;;0.90;;
33104;SDS011;19476;51.448;6.674;2023-08-06T13:57:38;2.05;;;1.08;;
33104;SDS011;19476;51.448;6.674;2023-08-06T14:00:04;1.15;;;0.73;;
33104;SDS011;19476;51.448;6.674;2023-08-06T14:02:31;1.55;;;0.88;;
33104;SDS011;19476;51.448;6.674;2023-08-06T14:04:56;1.83;;;0.93;;
33104;SDS011;19476;51.448;6.674;2023-08-06T14:07:22;2.35;;;0.90;;
33104;SDS011;19476;51.448;6.674;2023-08-06T14:09:48;2.78;;;1.15;;
33104;SDS011;19476;51.448;6.674;2023-08-06T14:12:14;2.30;;;0.80;;
33104;SDS011;19476;51.448;6.674;2023-08-06T14:14:40;3.65;;;1.05;;
33104;SDS011;19476;51.448;6.674;2023-08-06T14:17:06;1.40;;;0.70;;
33104;SDS011;19476;51.448;6.674;2023-08-06T14:19:32;1.95;;;0.80;;
33104;SDS011;19476;51.448;6.674;2023-08-06T14:21:57;1.98;;;0.77;;
33104;SDS011;19476;51.448;6.674;2023-08-06T14:24:23;3.03;;;0.70;;
33104;SDS011;19476;51.448;6.674;2023-08-06T14:26:49;1.88;;;0.90;;
33104;SDS011;19476;51.448;6.674;2023-08-06T14:29:15;2.10;;;0.80;;
33104;SDS011;19476;51.448;6.674;2023-08-06T14:31:41;1.85;;;0.90;;
33104;SDS011;19476;51.448;6.674;2023-08-06T14:34:07;1.17;;;0.80;;
33104;SDS011;19476;51.448;6.674;2023-08-06T14:36:33;2.75;;;0.80;;
33104;SDS011;19476;51.448;6.674;2023-08-06T14:39:00;4.20;;;2.35;;
33104;SDS011;19476;51.448;6.674;2023-08-06T14:41:26;2.67;;;1.30;;
33104;SDS011;19476;51.448;6.674;2023-08-06T14:43:52;2.67;;;1.27;;
33104;SDS011;19476;51.448;6.674;2023-08-06T14:46:19;3.17;;;1.20;;
33104;SDS011;19476;51.448;6.674;2023-08-06T14:48:45;2.20;;;1.10;;
33104;SDS011;19476;51.448;6.674;2023-08-06T14:51:10;1.48;;;0.80;;
33104;SDS011;19476;51.448;6.674;2023-08-06T14:53:36;2.85;;;1.50;;
33104;SDS011;19476;51.448;6.674;2023-08-06T14:56:02;2.17;;;1.20;;
33104;SDS011;19476;51.448;6.674;2023-08-06T14:58:28;2.33;;;1.25;;
33104;SDS011;19476;51.448;6.674;2023-08-06T15:00:54;1.60;;;0.80;;